Etusivu
METAR-TAF:

METAR-TAF

Lentoasemat :

Utin lentoasema

Utti, Suomi

Leveyspiiri: 60-54N, Pituuspiiri: 026-56E, korkeus merenpinnasta: 100 m

Tämänhetkinen sää

Tämä raportti tehtiin 10 minuuttia sitten, kello 10.20 UTC
Tuuli 9 kn idästä
Lämpötila 0°C
Kosteus 100%
Ilmanpaine 998 hPa
Näkyvyys: 9000 m
Pilvistä 400 ft:n korkeudessa

METAR: EFUT 101020Z 09009KT 9000 OVC004 M00/M00 Q0998

Aika: 12:30 (10:30 UTC)

Sääennuste

Tämä raportti tehtiin 1 tunti ja 2 minuuttia sitten, kello 09.28 UTC
Ennuste voimassa 10. päivästä klo 09 UTC - 10. päivään klo 18 UTC
Tuuli 8 kn idästä/kaakosta
Näkyvyys 10 km tai enemmän
Pilvistä 600 ft:n korkeudessa
Ajoittain
10. päivästä klo 09 UTC - 10. päivään klo 13 UTC
Hajonneita pilviä 300 ft:n korkeudessa
(heikkoa) jäätävää, tihkusadetta

TAF: EFUT 100928Z 1009/1018 11008KT 9999 OVC006 TEMPO 1009/1013 -FZDZ BKN003

Säähavainnot ja -ennusteet yli 4000 lentoasemalta (METAR- ja TAF-raportit).

Käytössä olevat sääasemat on merkitty karttaan keltaisilla ja punaisilla pisteillä.

Aseta hiiri pisteen päälle nähdäksesi sääaseman nimen.

Klikkaa sitten nähdäksesi säähavainnot ja -ennusteet.

Kartan vaihtaminen: klikkaa mustalla rastilla varustettuja vihreitä pisteitä, niin voit zoomata sisään; viivalla varustettua vihreää pistettä, niin voit zoomata ulos tai vihreitä nuolia, niin pääset viereisille kartoille.


METAR-TAF: